»·PEaware :: N373EB KHWD-KWHP

N373EB :: KHWD-KWHP

FLIGHT INFORMATION

Flight Status: Arrived
Operator: Privately registered:
United States
More flights under this callsign
Pilot: Peder R. (40111)
Aircraft: BEECH AIRCRAFT DEBONAIR BONANZA
(BE33)
More flights by this aircraft type
Origin: KHWD Hayward Executive
United States
Destination: KWHP Whiteman
United States
More flights between these airports :: More routes between these airports
Route: OSI030011 AVE V137 GMN V299 FIM
File this flight plan on PilotEdge
Remarks:
Altitude:
(Current/Filed)
11,000ft
Speed:
(Current/Filed)
155kts
Departed: 15-Aug-23 12:02 PM
Arrived: 15-Aug-23 02:07 PM
Distance/Time
Traveled:
272nm/2:05
Distance/Time
To Go:
Arrived

Flight Plot

Page will automatically refresh every two minutes.

Flight plan parsing failed; only flown route is shown


Map Options




Map Legend


Flown Route
Filed Route
Departure Airport
Arrival Airport
Navaid (VOR, NDB)
Fix

Horizontal Profiles

Position Reports

Time Latitude Longitude Heading Altitude Ground
Speed
15-Aug-23 11:41 37.659761 -122.116636 61 40ft 0kts
15-Aug-23 11:42 37.659761 -122.116636 61 40ft 0kts
15-Aug-23 11:43 37.659761 -122.116636 61 40ft 0kts
15-Aug-23 11:44 37.659761 -122.116636 61 40ft 0kts
15-Aug-23 11:45 37.659761 -122.116636 61 40ft 0kts
15-Aug-23 11:46 37.659761 -122.116636 61 40ft 0kts
15-Aug-23 11:47 37.659761 -122.116636 61 40ft 0kts
15-Aug-23 11:48 37.659761 -122.116636 61 40ft 0kts
15-Aug-23 11:49 37.659761 -122.116636 61 40ft 0kts
15-Aug-23 11:50 37.659761 -122.116636 61 40ft 0kts
15-Aug-23 11:51 37.659761 -122.116636 61 40ft 0kts
15-Aug-23 11:52 37.659761 -122.116636 61 40ft 0kts
15-Aug-23 11:53 37.659761 -122.116636 61 40ft 0kts
15-Aug-23 11:54 37.659684 -122.116544 275 40ft 4kts
15-Aug-23 11:55 37.658314 -122.116591 153 40ft 11kts
15-Aug-23 11:56 37.656680 -122.114776 160 43ft 0kts
15-Aug-23 11:57 37.656679 -122.114776 160 43ft 0kts
15-Aug-23 11:58 37.656680 -122.114776 160 43ft 0kts
15-Aug-23 11:59 37.656032 -122.114365 144 44ft 4kts
15-Aug-23 12:00 37.655318 -122.112965 124 47ft 0kts
15-Aug-23 12:01 37.654786 -122.113926 299 46ft 43kts
15-Aug-23 12:02 37.662749 -122.141042 238 756ft 105kts
15-Aug-23 12:03 37.635467 -122.140194 186 1886ft 104kts
15-Aug-23 12:04 37.608265 -122.150065 186 2783ft 112kts
15-Aug-23 12:05 37.580016 -122.135450 154 3597ft 117kts
15-Aug-23 12:06 37.549714 -122.118553 150 4409ft 119kts
15-Aug-23 12:07 37.523401 -122.093584 134 5221ft 118kts
15-Aug-23 12:08 37.499217 -122.065363 133 5997ft 118kts
15-Aug-23 12:09 37.475171 -122.036820 132 6726ft 118kts
15-Aug-23 12:10 37.450685 -122.008802 133 7386ft 119kts
15-Aug-23 12:11 37.426215 -121.980302 136 7993ft 120kts
15-Aug-23 12:12 37.402061 -121.952440 130 8538ft 120kts
15-Aug-23 12:13 37.377722 -121.923235 132 9058ft 121kts
15-Aug-23 12:14 37.352440 -121.894678 134 9539ft 122kts
15-Aug-23 12:15 37.326945 -121.866010 134 9993ft 123kts
15-Aug-23 12:16 37.301187 -121.836002 133 10358ft 128kts
15-Aug-23 12:17 37.274380 -121.806624 132 10784ft 126kts
15-Aug-23 12:18 37.248473 -121.774464 133 11000ft 139kts
15-Aug-23 12:19 37.218354 -121.739131 134 11000ft 155kts
15-Aug-23 12:20 37.185840 -121.701988 133 10966ft 159kts
15-Aug-23 12:21 37.153862 -121.664520 136 10984ft 156kts
15-Aug-23 12:22 37.122082 -121.629055 136 11028ft 152kts
15-Aug-23 12:23 37.089868 -121.592853 134 11023ft 155kts
15-Aug-23 12:24 37.058046 -121.555760 134 11056ft 156kts
15-Aug-23 12:25 37.025477 -121.518586 135 11057ft 158kts
15-Aug-23 12:26 36.992330 -121.481188 135 11044ft 159kts
15-Aug-23 12:27 36.959491 -121.443179 132 11030ft 160kts
15-Aug-23 12:28 36.926401 -121.404974 134 11029ft 160kts
15-Aug-23 12:29 36.893325 -121.367091 134 11028ft 160kts
15-Aug-23 12:30 36.860303 -121.329272 135 11029ft 160kts
15-Aug-23 12:31 36.827362 -121.291548 135 11029ft 160kts
15-Aug-23 12:32 36.794387 -121.253785 135 11029ft 160kts
15-Aug-23 12:33 36.761376 -121.215987 135 11029ft 160kts
15-Aug-23 12:34 36.728459 -121.178389 135 11049ft 159kts
15-Aug-23 12:35 36.695339 -121.141737 135 11056ft 159kts
15-Aug-23 12:36 36.662216 -121.104314 134 11016ft 159kts
15-Aug-23 12:37 36.629431 -121.066869 134 11033ft 156kts
15-Aug-23 12:38 36.597429 -121.030636 136 11007ft 155kts
15-Aug-23 12:39 36.565513 -120.994528 134 10993ft 154kts
15-Aug-23 12:40 36.534192 -120.958040 139 10969ft 153kts
15-Aug-23 12:41 36.501825 -120.923711 137 10955ft 153kts
15-Aug-23 12:42 36.470196 -120.888201 135 10953ft 152kts
15-Aug-23 12:43 36.438644 -120.853292 136 10954ft 152kts
15-Aug-23 12:44 36.407264 -120.818270 137 10966ft 151kts
15-Aug-23 12:45 36.375998 -120.783153 137 10975ft 150kts
15-Aug-23 12:46 36.344979 -120.747827 136 10984ft 150kts
15-Aug-23 12:47 36.313800 -120.713023 135 10991ft 150kts
15-Aug-23 12:48 36.282487 -120.678132 139 11003ft 150kts
15-Aug-23 12:49 36.250894 -120.643971 136 11013ft 150kts
15-Aug-23 12:50 36.219644 -120.609008 136 11022ft 150kts
15-Aug-23 12:52 36.188014 -120.574345 136 11029ft 150kts
15-Aug-23 12:53 36.156388 -120.540156 139 11038ft 150kts
15-Aug-23 12:54 36.124969 -120.505454 136 11045ft 150kts
15-Aug-23 12:55 36.093955 -120.470286 138 11045ft 151kts
15-Aug-23 12:56 36.062084 -120.435802 137 11030ft 151kts
15-Aug-23 12:57 36.030895 -120.400564 137 11028ft 151kts
15-Aug-23 12:58 35.999100 -120.365447 136 10996ft 152kts
15-Aug-23 12:59 35.967434 -120.330270 135 10993ft 151kts
15-Aug-23 13:00 35.935517 -120.295708 140 10978ft 152kts
15-Aug-23 13:01 35.904134 -120.260863 137 10998ft 151kts
15-Aug-23 13:02 35.872811 -120.226257 137 11054ft 150kts
15-Aug-23 13:03 35.841603 -120.191839 137 11083ft 149kts
15-Aug-23 13:04 35.810092 -120.157480 138 11085ft 151kts
15-Aug-23 13:05 35.778376 -120.122143 137 11069ft 152kts
15-Aug-23 13:06 35.747022 -120.086304 138 11038ft 153kts
15-Aug-23 13:07 35.714554 -120.051503 137 11032ft 152kts
15-Aug-23 13:08 35.682625 -120.016131 138 11029ft 152kts
15-Aug-23 13:09 35.650633 -119.981818 136 11042ft 151kts
15-Aug-23 13:10 35.621712 -119.943793 133 11078ft 150kts
15-Aug-23 13:11 35.592617 -119.905680 131 11068ft 152kts
15-Aug-23 13:12 35.563438 -119.867488 133 11076ft 152kts
15-Aug-23 13:13 35.533962 -119.829155 134 11062ft 153kts
15-Aug-23 13:14 35.504504 -119.790572 129 11049ft 153kts
15-Aug-23 13:15 35.475434 -119.751783 129 11027ft 154kts
15-Aug-23 13:15 35.452611 -119.718093 131 11013ft 153kts
15-Aug-23 13:17 35.418134 -119.672920 131 10990ft 153kts
15-Aug-23 13:18 35.388843 -119.634559 130 10972ft 153kts
15-Aug-23 13:19 35.360104 -119.595567 131 10989ft 152kts
15-Aug-23 13:19 35.336060 -119.563648 130 11009ft 151kts
15-Aug-23 13:20 35.307659 -119.525292 130 11050ft 149kts
15-Aug-23 13:22 35.274701 -119.480579 131 11045ft 150kts
15-Aug-23 13:23 35.246197 -119.442129 133 11022ft 152kts
15-Aug-23 13:23 35.222886 -119.409825 125 11056ft 150kts
15-Aug-23 13:24 35.193506 -119.372170 132 11025ft 151kts
15-Aug-23 13:25 35.164652 -119.334089 133 11021ft 152kts
15-Aug-23 13:27 35.130612 -119.290031 134 11031ft 151kts
15-Aug-23 13:27 35.106546 -119.258219 130 11032ft 151kts
15-Aug-23 13:28 35.077995 -119.219985 133 11036ft 151kts
15-Aug-23 13:29 35.049144 -119.182196 133 11039ft 151kts
15-Aug-23 13:30 35.020075 -119.144570 131 11054ft 150kts
15-Aug-23 13:31 34.990283 -119.107711 132 11036ft 152kts
15-Aug-23 13:32 34.961153 -119.070240 128 11065ft 150kts
15-Aug-23 13:33 34.932887 -119.031440 127 11054ft 151kts
15-Aug-23 13:34 34.903962 -118.993689 128 11061ft 151kts
15-Aug-23 13:35 34.874025 -118.956391 128 10950ft 154kts
15-Aug-23 13:36 34.845896 -118.918868 128 11015ft 145kts
15-Aug-23 13:37 34.819536 -118.882183 125 11012ft 142kts
15-Aug-23 13:38 34.784695 -118.864620 177 11063ft 150kts
15-Aug-23 13:39 34.742501 -118.865539 170 11060ft 149kts
15-Aug-23 13:40 34.700648 -118.865804 171 11123ft 148kts
15-Aug-23 13:41 34.658624 -118.867565 175 10474ft 153kts
15-Aug-23 13:42 34.615961 -118.868707 177 9622ft 152kts
15-Aug-23 13:43 34.574483 -118.869205 175 8961ft 141kts
15-Aug-23 13:44 34.535674 -118.870543 179 9105ft 138kts
15-Aug-23 13:45 34.495614 -118.875069 179 8997ft 148kts
15-Aug-23 13:46 34.454927 -118.876925 177 8190ft 145kts
15-Aug-23 13:47 34.415105 -118.878042 184 7335ft 143kts
15-Aug-23 13:48 34.375400 -118.879176 178 6465ft 141kts
15-Aug-23 13:49 34.340024 -118.860270 147 5569ft 144kts
15-Aug-23 13:50 34.310711 -118.826115 139 4716ft 145kts
15-Aug-23 13:51 34.284165 -118.794826 142 4383ft 124kts
15-Aug-23 13:52 34.262058 -118.769213 141 4413ft 106kts
15-Aug-23 13:53 34.241185 -118.744646 138 4372ft 102kts
15-Aug-23 13:54 34.223809 -118.718164 101 4222ft 112kts
15-Aug-23 13:55 34.224111 -118.681615 95 3936ft 107kts
15-Aug-23 13:56 34.223689 -118.646606 96 3840ft 100kts
15-Aug-23 13:57 34.223359 -118.612788 94 3909ft 99kts
15-Aug-23 13:58 34.222687 -118.579454 93 3845ft 98kts
15-Aug-23 13:59 34.222569 -118.546053 93 3486ft 99kts
15-Aug-23 14:00 34.222146 -118.512938 92 3172ft 100kts
15-Aug-23 14:01 34.224503 -118.480448 63 2738ft 113kts
15-Aug-23 14:02 34.241642 -118.451530 58 2130ft 104kts
15-Aug-23 14:03 34.261598 -118.442728 319 1830ft 91kts
15-Aug-23 14:04 34.277169 -118.434156 103 1640ft 84kts
15-Aug-23 14:05 34.262409 -118.416774 138 1020ft 67kts
15-Aug-23 14:06 34.259470 -118.413022 46 992ft 0kts
15-Aug-23 14:07 34.259958 -118.412688 317 994ft 0kts

Navigation Log

Ident Type
Flight plan parsing failed, navigation log unavailable